Time;durP1;ratioP1;P1;durP2;ratioP2;P2;SDS_P1;SDS_P2;PMS_P1;PMS_P2;Temp;Humidity;BMP_temperature;BMP_pressure;BME280_temperature;BME280_humidity;BME280_pressure;Samples;Min_cycle;Max_cycle;Signal;HPM_P1;HPM_P2
2021/09/21 00:02:05;;;;;;;86.70;62.50;;;;;;;7.23;73.94;101227.17;117087;1180;23419;-74
2021/09/21 00:04:35;;;;;;;87.50;63.50;;;;;;;7.23;73.82;101232.20;117130;1186;21885;-74
2021/09/21 00:07:04;;;;;;;83.60;62.00;;;;;;;7.21;73.65;101228.70;117058;1189;23416;-75
2021/09/21 00:09:33;;;;;;;81.50;59.60;;;;;;;7.18;73.46;101226.85;117104;1189;21897;-75
2021/09/21 00:12:02;;;;;;;84.70;58.60;;;;;;;7.16;73.42;101223.36;117150;1188;21885;-75
2021/09/21 00:14:32;;;;;;;78.00;56.20;;;;;;;7.13;73.41;101224.77;117116;1177;21952;-75
2021/09/21 00:17:02;;;;;;;65.90;49.20;;;;;;;7.09;73.29;101226.56;117072;1189;21981;-75
2021/09/21 00:19:35;;;;;;;67.50;49.10;;;;;;;7.03;73.33;101223.85;117126;1189;21902;-75
2021/09/21 00:22:04;;;;;;;70.60;51.10;;;;;;;6.99;73.38;101228.04;116938;1190;21888;-74
2021/09/21 00:24:34;;;;;;;68.00;51.90;;;;;;;6.95;73.44;101227.11;116801;1191;21880;-75
2021/09/21 00:27:03;;;;;;;59.80;45.30;;;;;;;6.91;73.45;101229.73;116819;1191;21891;-74
2021/09/21 00:29:32;;;;;;;58.40;43.80;;;;;;;6.86;73.34;101230.67;116832;1191;21900;-75
2021/09/21 00:32:02;;;;;;;52.60;41.40;;;;;;;6.82;73.41;101237.45;116781;1191;21923;-75
2021/09/21 00:34:37;;;;;;;53.30;39.10;;;;;;;6.77;73.41;101241.16;116787;1191;21897;-75
2021/09/21 00:37:10;;;;;;;50.50;38.10;;;;;;;6.71;73.41;101246.86;116863;1187;22869;-75
2021/09/21 00:39:42;;;;;;;50.20;38.40;;;;;;;6.67;73.50;101250.55;116807;1191;22113;-75
2021/09/21 00:42:14;;;;;;;50.30;36.10;;;;;;;6.64;73.61;101254.79;116890;1189;22134;-75
2021/09/21 00:44:43;;;;;;;45.00;34.60;;;;;;;6.61;73.74;101257.35;117076;1184;21905;-75
2021/09/21 00:47:12;;;;;;;42.30;32.80;;;;;;;6.56;73.84;101258.87;117170;1188;21868;-74
2021/09/21 00:49:41;;;;;;;40.80;30.80;;;;;;;6.55;73.94;101261.42;117120;1188;23376;-75
2021/09/21 00:52:10;;;;;;;41.40;31.40;;;;;;;6.53;74.04;101255.27;117098;1188;21878;-75
2021/09/21 00:54:40;;;;;;;39.00;30.90;;;;;;;6.52;74.10;101255.34;117084;1188;22264;-75
2021/09/21 00:57:11;;;;;;;34.80;28.30;;;;;;;6.51;74.07;101258.77;117137;1188;21905;-75
2021/09/21 00:59:40;;;;;;;41.80;29.70;;;;;;;6.49;74.09;101249.80;117178;1188;21959;-75
2021/09/21 01:02:09;;;;;;;42.00;31.60;;;;;;;6.48;74.20;101237.47;117133;1188;21874;-75
2021/09/21 01:04:39;;;;;;;39.90;29.90;;;;;;;6.48;74.36;101232.18;117227;1188;21890;-75
2021/09/21 01:07:08;;;;;;;39.20;31.20;;;;;;;6.47;74.41;101235.42;117043;1180;22308;-75
2021/09/21 01:09:38;;;;;;;39.50;30.10;;;;;;;6.47;74.39;101246.69;117146;1186;21892;-74
2021/09/21 01:12:08;;;;;;;39.00;31.40;;;;;;;6.46;74.38;101251.14;116950;1189;23435;-74
2021/09/21 01:14:37;;;;;;;37.40;30.40;;;;;;;6.43;74.27;101251.05;117037;1180;22221;-74
2021/09/21 01:17:07;;;;;;;39.40;29.10;;;;;;;6.39;74.28;101251.81;117139;1188;22030;-74
2021/09/21 01:19:37;;;;;;;38.30;30.70;;;;;;;6.36;74.15;101256.64;117098;1188;21892;-74
2021/09/21 01:22:06;;;;;;;41.70;30.10;;;;;;;6.33;74.26;101256.66;117055;1188;23475;-74
2021/09/21 01:24:36;;;;;;;34.60;29.00;;;;;;;6.31;74.37;101258.07;117019;1189;21895;-75
2021/09/21 01:27:06;;;;;;;42.20;30.80;;;;;;;6.31;74.56;101260.14;117069;1189;21897;-75
2021/09/21 01:29:35;;;;;;;38.00;30.20;;;;;;;6.31;74.74;101257.14;117076;1185;21891;-75
2021/09/21 01:32:04;;;;;;;35.70;28.60;;;;;;;6.33;74.86;101262.41;117063;1189;21974;-75
2021/09/21 01:34:34;;;;;;;43.40;31.10;;;;;;;6.36;74.89;101261.69;117154;1188;22310;-74
2021/09/21 01:37:06;;;;;;;40.90;31.90;;;;;;;6.37;74.84;101259.86;117136;1184;21915;-75
2021/09/21 01:39:35;;;;;;;36.80;28.80;;;;;;;6.38;74.84;101255.07;117114;1189;22906;-74
2021/09/21 01:42:04;;;;;;;35.90;28.20;;;;;;;6.39;74.93;101251.16;117113;1188;21892;-74
2021/09/21 01:44:33;;;;;;;36.10;30.10;;;;;;;6.40;75.01;101250.53;116904;1189;21875;-74
2021/09/21 01:47:04;;;;;;;42.80;30.80;;;;;;;6.40;75.00;101250.54;117060;1189;21905;-74
2021/09/21 01:49:48;;;;;;;35.50;29.40;;;;;;;6.39;74.83;101248.55;117146;1188;21878;-74
2021/09/21 01:52:22;;;;;;;43.10;30.80;;;;;;;6.36;74.80;101244.88;117133;1188;23017;-74
2021/09/21 02:00:11;;;;;;;39.10;31.40;;;;;;;6.31;74.85;101252.27;117074;1186;22050;-74
2021/09/21 02:02:40;;;;;;;41.10;32.30;;;;;;;6.28;74.89;101253.55;117179;1188;21867;-74
2021/09/21 02:05:10;;;;;;;44.40;32.10;;;;;;;6.27;75.04;101255.54;117072;1188;21886;-74
2021/09/21 02:07:39;;;;;;;40.50;31.60;;;;;;;6.27;75.09;101251.55;116957;1189;22902;-74
2021/09/21 02:10:10;;;;;;;37.90;31.00;;;;;;;6.27;75.15;101253.30;117159;1189;21890;-75
2021/09/21 02:12:39;;;;;;;36.10;30.70;;;;;;;6.26;75.16;101256.34;117060;1188;21902;-74
2021/09/21 02:15:10;;;;;;;35.90;28.20;;;;;;;6.24;75.02;101257.70;117026;1190;21892;-75
2021/09/21 02:17:39;;;;;;;42.20;31.30;;;;;;;6.22;75.02;101251.23;117004;1189;21915;-74
2021/09/21 02:20:09;;;;;;;36.00;29.10;;;;;;;6.19;75.08;101249.85;116736;1192;23970;-74
2021/09/21 02:22:38;;;;;;;35.70;28.10;;;;;;;6.17;75.08;101250.73;116678;1193;21884;-74
2021/09/21 02:25:08;;;;;;;39.40;30.70;;;;;;;6.15;75.05;101246.91;116683;1190;23455;-74
2021/09/21 02:27:38;;;;;;;35.80;28.70;;;;;;;6.12;75.06;101245.85;116751;1189;22843;-76
2021/09/21 02:30:08;;;;;;;41.10;30.40;;;;;;;6.09;75.06;101245.18;116438;1194;21998;-75
2021/09/21 02:32:39;;;;;;;37.10;28.60;;;;;;;6.06;74.99;101241.79;116474;1194;21898;-75
2021/09/21 02:35:08;;;;;;;37.60;29.90;;;;;;;6.03;75.05;101244.13;116448;1194;21883;-75
2021/09/21 02:37:37;;;;;;;41.30;30.90;;;;;;;6.00;75.16;101247.61;116495;1187;21894;-75
2021/09/21 02:40:08;;;;;;;41.00;29.30;;;;;;;5.99;75.16;101248.27;116898;1187;23443;-75
2021/09/21 02:42:39;;;;;;;35.10;28.80;;;;;;;5.97;75.07;101250.55;116778;1191;21903;-74
2021/09/21 02:45:09;;;;;;;39.00;30.80;;;;;;;5.93;75.15;101245.02;116768;1192;21893;-75
2021/09/21 02:47:38;;;;;;;35.00;28.20;;;;;;;5.91;75.21;101241.89;116842;1188;23458;-74
2021/09/21 02:50:09;;;;;;;41.60;30.70;;;;;;;5.88;75.21;101245.04;116861;1189;21896;-74
2021/09/21 02:52:39;;;;;;;38.20;30.00;;;;;;;5.86;75.33;101246.20;116959;1189;21951;-74
2021/09/21 02:55:08;;;;;;;34.90;29.70;;;;;;;5.85;75.36;101246.51;116892;1189;22907;-74
2021/09/21 02:57:38;;;;;;;37.50;28.30;;;;;;;5.83;75.37;101246.06;117027;1189;21896;-75
2021/09/21 03:00:11;;;;;;;40.10;29.70;;;;;;;5.81;75.47;101240.80;117045;1189;22038;-75
2021/09/21 03:02:42;;;;;;;36.30;28.60;;;;;;;5.80;75.47;101239.67;117113;1189;22092;-74
2021/09/21 03:05:17;;;;;;;35.50;28.70;;;;;;;5.79;75.50;101241.17;116984;1189;21915;-74
2021/09/21 03:08:34;;;;;;;37.20;30.10;;;;;;;5.77;75.43;101245.36;116991;1189;21895;-74
2021/09/21 03:18:37;;;;;;;42.30;30.20;;;;;;;5.63;75.41;101245.66;116653;1192;21921;-75
2021/09/21 03:21:06;;;;;;;40.60;31.30;;;;;;;5.61;75.53;101248.05;116540;1190;21901;-75
2021/09/21 03:23:35;;;;;;;37.10;31.30;;;;;;;5.61;75.57;101250.48;116483;1193;21912;-74
2021/09/21 03:26:05;;;;;;;40.50;32.30;;;;;;;5.61;75.63;101249.15;116535;1193;23601;-75
2021/09/21 03:28:35;;;;;;;38.70;31.60;;;;;;;5.59;75.76;101256.44;116463;1193;23005;-75
2021/09/21 03:31:04;;;;;;;41.00;31.50;;;;;;;5.57;75.67;101257.83;116500;1193;22956;-75
2021/09/21 03:33:33;;;;;;;43.60;33.50;;;;;;;5.56;75.76;101257.23;116556;1192;21989;-74
2021/09/21 03:36:04;;;;;;;40.30;31.40;;;;;;;5.55;75.76;101262.33;116771;1192;21903;-74
2021/09/21 03:38:33;;;;;;;39.40;32.40;;;;;;;5.55;75.86;101269.82;116799;1190;21894;-74
2021/09/21 03:41:02;;;;;;;43.40;33.70;;;;;;;5.57;76.03;101268.15;117071;1189;21919;-74
2021/09/21 03:43:32;;;;;;;40.80;32.40;;;;;;;5.58;76.06;101277.11;117087;1186;21887;-75
2021/09/21 03:46:01;;;;;;;39.70;31.40;;;;;;;5.60;76.21;101278.52;117103;1189;21894;-75
2021/09/21 03:48:30;;;;;;;40.70;33.10;;;;;;;5.62;76.27;101274.70;117046;1189;21909;-74
2021/09/21 03:50:59;;;;;;;44.60;31.70;;;;;;;5.66;76.34;101272.19;116900;1190;21906;-75
2021/09/21 03:53:29;;;;;;;40.50;32.30;;;;;;;5.70;76.35;101274.54;117036;1189;24146;-75
2021/09/21 03:55:58;;;;;;;37.50;30.30;;;;;;;5.72;76.29;101272.09;116925;1190;23492;-75
2021/09/21 03:58:28;;;;;;;42.30;33.00;;;;;;;5.74;76.28;101272.86;117162;1189;23452;-75
2021/09/21 04:00:57;;;;;;;40.10;30.90;;;;;;;5.75;76.29;101274.14;117087;1189;22818;-75
2021/09/21 04:03:26;;;;;;;39.50;30.40;;;;;;;5.75;76.19;101278.30;117100;1189;21953;-75
2021/09/21 04:05:55;;;;;;;40.40;30.60;;;;;;;5.75;76.26;101275.70;117039;1189;21878;-75
2021/09/21 04:08:24;;;;;;;38.60;30.10;;;;;;;5.78;76.38;101276.20;116943;1189;21895;-75
2021/09/21 04:10:54;;;;;;;43.00;29.80;;;;;;;5.80;76.47;101280.92;117041;1189;21908;-75
2021/09/21 04:13:23;;;;;;;43.30;31.40;;;;;;;5.83;76.48;101281.59;117046;1189;21910;-75
2021/09/21 04:15:53;;;;;;;37.10;31.50;;;;;;;5.85;76.52;101282.98;117055;1189;21896;-75
2021/09/21 04:18:22;;;;;;;40.60;30.90;;;;;;;5.87;76.57;101284.41;117026;1189;21888;-75
2021/09/21 04:20:52;;;;;;;41.60;32.20;;;;;;;5.90;76.66;101285.09;117019;1189;21983;-74
2021/09/21 04:23:24;;;;;;;41.70;30.20;;;;;;;5.94;76.78;101286.75;117083;1176;22008;-75
2021/09/21 04:25:53;;;;;;;43.20;33.10;;;;;;;5.98;76.86;101289.77;116972;1190;21883;-75
2021/09/21 04:28:23;;;;;;;44.50;33.30;;;;;;;6.02;76.98;101289.27;117018;1189;21875;-75
2021/09/21 04:30:53;;;;;;;40.70;32.20;;;;;;;6.09;77.23;101290.33;117056;1189;21894;-75
2021/09/21 04:33:23;;;;;;;46.30;34.00;;;;;;;6.17;77.40;101292.90;117143;1187;21902;-75
2021/09/21 04:35:52;;;;;;;46.60;35.40;;;;;;;6.24;77.29;101302.70;117114;1188;23462;-75
2021/09/21 04:38:22;;;;;;;40.60;33.00;;;;;;;6.26;77.10;101301.65;117053;1189;22910;-74
2021/09/21 04:40:51;;;;;;;43.60;33.10;;;;;;;6.29;77.08;101300.54;117034;1188;21931;-74
2021/09/21 04:43:35;;;;;;;39.80;31.70;;;;;;;6.34;77.19;101297.36;117083;1189;22927;-74
2021/09/21 04:46:10;;;;;;;37.50;31.70;;;;;;;6.39;77.28;101300.81;116793;1191;22289;-74
2021/09/21 04:48:40;;;;;;;40.80;31.50;;;;;;;6.41;76.99;101298.90;116887;1191;21946;-74
2021/09/21 04:51:09;;;;;;;40.60;31.40;;;;;;;6.42;76.84;101300.95;116931;1190;21892;-74
2021/09/21 04:53:38;;;;;;;44.00;32.90;;;;;;;6.42;76.68;101296.61;117052;1190;21892;-75
2021/09/21 04:56:08;;;;;;;46.80;32.80;;;;;;;6.42;76.69;101297.66;116858;1190;23614;-75
2021/09/21 04:58:37;;;;;;;41.50;32.90;;;;;;;6.43;76.86;101295.98;116861;1190;21916;-75
2021/09/21 05:01:06;;;;;;;42.20;33.20;;;;;;;6.45;76.85;101298.65;116760;1189;22595;-74
2021/09/21 05:03:37;;;;;;;43.10;32.70;;;;;;;6.44;76.70;101295.70;116742;1190;21907;-75
2021/09/21 05:06:06;;;;;;;41.40;31.60;;;;;;;6.43;76.59;101298.42;117061;1189;21883;-75
2021/09/21 05:08:38;;;;;;;;;;;;;;;6.42;76.58;101300.93;117145;1189;23155;-75
2021/09/21 05:11:08;;;;;;;43.90;30.20;;;;;;;6.34;76.58;101299.80;117046;1189;21961;-75
2021/09/21 05:13:37;;;;;;;38.50;31.10;;;;;;;6.32;76.56;101304.70;117019;1189;23502;-75
2021/09/21 05:16:06;;;;;;;40.00;31.30;;;;;;;6.32;76.52;101304.48;117043;1189;21891;-74
2021/09/21 05:18:36;;;;;;;46.40;30.40;;;;;;;6.33;76.56;101305.80;116987;1188;22853;-75
2021/09/21 05:21:06;;;;;;;38.30;29.80;;;;;;;6.34;76.69;101304.51;117260;1187;21894;-76
2021/09/21 05:23:36;;;;;;;41.30;33.00;;;;;;;6.38;76.95;101305.96;117292;1187;21931;-75
2021/09/21 05:26:05;;;;;;;45.60;35.30;;;;;;;6.42;77.08;101308.30;117169;1188;22650;-74
2021/09/21 05:28:35;;;;;;;41.60;34.10;;;;;;;6.46;77.04;101309.59;117252;1187;21946;-75
2021/09/21 05:31:06;;;;;;;41.10;33.60;;;;;;;6.48;77.03;101311.48;117160;1188;22047;-74
2021/09/21 05:33:35;;;;;;;43.20;31.10;;;;;;;6.50;77.06;101313.65;117240;1187;21895;-75
2021/09/21 05:36:04;;;;;;;38.00;32.90;;;;;;;6.51;76.98;101316.35;117277;1185;21874;-75
2021/09/21 05:38:34;;;;;;;44.40;33.70;;;;;;;6.53;77.01;101321.81;117162;1188;21930;-75
2021/09/21 05:41:03;;;;;;;39.40;34.60;;;;;;;6.54;76.89;101326.26;117100;1185;22902;-75
2021/09/21 05:43:32;;;;;;;36.70;32.80;;;;;;;6.54;76.74;101326.27;116993;1187;22956;-75
2021/09/21 05:46:08;;;;;;;40.30;33.40;;;;;;;6.53;76.60;101329.30;116848;1191;22127;-75
2021/09/21 05:48:37;;;;;;;44.80;33.20;;;;;;;6.54;76.85;101328.87;116840;1190;23437;-75
2021/09/21 05:51:07;;;;;;;37.60;33.00;;;;;;;6.59;77.03;101333.59;116543;1193;21887;-76
2021/09/21 05:53:36;;;;;;;41.50;33.50;;;;;;;6.62;76.90;101335.31;116491;1193;21886;-75
2021/09/21 05:56:05;;;;;;;41.10;34.20;;;;;;;6.65;76.85;101339.65;116610;1193;21888;-75
2021/09/21 05:58:35;;;;;;;41.40;33.10;;;;;;;6.69;76.94;101338.65;116485;1193;22130;-77
2021/09/21 06:01:06;;;;;;;45.70;39.30;;;;;;;6.74;77.09;101337.46;116625;1191;23590;-75
2021/09/21 06:03:36;;;;;;;39.40;32.50;;;;;;;6.79;77.03;101337.09;116798;1191;21947;-76
2021/09/21 06:06:06;;;;;;;43.50;37.70;;;;;;;6.83;76.93;101337.66;116869;1191;21892;-75
2021/09/21 06:08:36;;;;;;;33.10;29.60;;;;;;;6.85;76.73;101339.61;116898;1188;21902;-76
2021/09/21 06:11:05;;;;;;;34.00;30.30;;;;;;;6.86;76.54;101342.52;117194;1184;21890;-78
2021/09/21 06:13:34;;;;;;;41.20;31.00;;;;;;;6.89;76.59;101343.02;117090;1185;21901;-74
2021/09/21 06:16:04;;;;;;;40.30;30.10;;;;;;;6.96;77.06;101345.73;117097;1188;21900;-75
2021/09/21 06:18:34;;;;;;;38.60;30.80;;;;;;;7.12;77.68;101351.36;117217;1188;21918;-75
2021/09/21 06:21:10;;;;;;;45.20;30.30;;;;;;;7.32;78.11;101353.11;117348;1188;21898;-75
2021/09/21 06:23:40;;;;;;;39.90;30.80;;;;;;;7.56;78.50;101357.86;117148;1188;21923;-74
2021/09/21 06:26:09;;;;;;;40.40;31.50;;;;;;;7.77;78.16;101356.17;116989;1189;22010;-74
2021/09/21 06:28:39;;;;;;;36.60;30.10;;;;;;;7.95;77.84;101357.83;117031;1189;23507;-75
2021/09/21 06:31:09;;;;;;;43.40;31.80;;;;;;;8.17;77.77;101365.26;116882;1190;23607;-75
2021/09/21 06:33:38;;;;;;;36.10;30.00;;;;;;;8.47;78.02;101365.59;117004;1181;22909;-75
2021/09/21 06:36:09;;;;;;;32.40;28.50;;;;;;;8.82;78.18;101373.05;116782;1188;22911;-74
2021/09/21 06:38:38;;;;;;;41.80;29.60;;;;;;;9.26;78.57;101374.27;116590;1193;23648;-75
2021/09/21 06:41:07;;;;;;;35.50;28.10;;;;;;;9.68;77.67;101372.68;116767;1192;21915;-74
2021/09/21 06:43:36;;;;;;;33.60;26.50;;;;;;;10.05;76.66;101371.30;116651;1191;21890;-75
2021/09/21 06:46:05;;;;;;;31.80;25.90;;;;;;;10.51;76.49;101369.59;116788;1191;21979;-75
2021/09/21 06:48:41;;;;;;;31.70;27.20;;;;;;;11.05;75.80;101370.89;116793;1191;21905;-73
2021/09/21 06:51:10;;;;;;;36.70;26.20;;;;;;;11.55;74.49;101369.51;116911;1191;22735;-74
2021/09/21 06:53:43;;;;;;;31.30;24.90;;;;;;;12.01;72.82;101370.88;116862;1188;21902;-74
2021/09/21 06:56:13;;;;;;;31.20;22.50;;;;;;;12.47;71.41;101374.23;117278;1187;22350;-75
2021/09/21 06:58:42;;;;;;;28.90;23.50;;;;;;;12.95;70.11;101377.97;117225;1187;21889;-73
2021/09/21 07:01:12;;;;;;;25.80;21.10;;;;;;;13.36;68.28;101384.86;117188;1174;21895;-70
2021/09/21 07:03:47;;;;;;;25.90;22.60;;;;;;;13.69;66.36;101386.73;117266;1187;23533;-74
2021/09/21 07:06:16;;;;;;;26.10;20.50;;;;;;;13.94;65.09;101387.21;117233;1174;21912;-72
2021/09/21 07:08:46;;;;;;;26.90;20.60;;;;;;;14.27;64.65;101387.75;117224;1188;21904;-74
2021/09/21 07:11:15;;;;;;;24.30;21.20;;;;;;;14.60;63.03;101384.20;117151;1184;21888;-74
2021/09/21 07:13:45;;;;;;;21.90;19.00;;;;;;;14.76;61.11;101378.90;117228;1187;21879;-75
2021/09/21 07:16:14;;;;;;;22.70;19.90;;;;;;;14.96;60.92;101381.56;117188;1187;21889;-75
2021/09/21 07:18:44;;;;;;;23.00;20.50;;;;;;;15.20;60.08;101384.06;116799;1191;23461;-72
2021/09/21 07:21:13;;;;;;;22.00;18.30;;;;;;;15.38;59.32;101384.27;116937;1190;22345;-75
2021/09/21 07:23:45;;;;;;;21.20;18.70;;;;;;;15.69;59.58;101380.80;116869;1190;21911;-74
2021/09/21 07:26:15;;;;;;;23.50;17.90;;;;;;;16.04;59.00;101384.58;116793;1191;21892;-74
2021/09/21 07:28:44;;;;;;;19.80;17.80;;;;;;;16.40;58.28;101385.02;116799;1190;21893;-74
2021/09/21 07:31:15;;;;;;;22.70;17.20;;;;;;;16.72;57.12;101384.98;116739;1191;21867;-74
2021/09/21 07:33:47;;;;;;;20.80;17.00;;;;;;;17.00;55.88;101387.91;116914;1190;21903;-78
2021/09/21 07:36:16;;;;;;;;;;;;;;;17.24;54.97;101388.65;117121;1187;22921;-74
2021/09/21 07:38:45;;;;;;;14.80;13.10;;;;;;;17.41;53.92;101390.41;117260;1184;21986;-73
2021/09/21 07:41:15;;;;;;;18.20;13.20;;;;;;;17.48;52.70;101392.92;116914;1187;21896;-73
2021/09/21 07:43:47;;;;;;;14.30;11.40;;;;;;;17.52;52.36;101396.71;116824;1187;22853;-74
2021/09/21 07:46:16;;;;;;;15.30;11.60;;;;;;;17.56;52.06;101395.48;116823;1190;23436;-74
2021/09/21 07:48:46;;;;;;;13.60;10.30;;;;;;;17.75;52.63;101395.45;116909;1182;22367;-74
2021/09/21 07:51:15;;;;;;;13.70;9.80;;;;;;;18.02;52.04;101399.52;116822;1187;22867;-72
2021/09/21 07:53:44;;;;;;;13.10;11.60;;;;;;;18.22;50.76;101403.30;117091;1190;21889;-74
2021/09/21 07:56:13;;;;;;;12.70;9.70;;;;;;;18.34;50.17;101403.42;116771;1177;22530;-74
2021/09/21 07:58:50;;;;;;;11.00;9.50;;;;;;;18.55;49.74;101405.53;116830;1187;22622;-75
2021/09/21 08:01:20;;;;;;;10.50;9.00;;;;;;;18.71;48.59;101401.95;117196;1187;23699;-74
2021/09/21 08:03:56;;;;;;;9.90;8.20;;;;;;;18.77;47.89;101401.05;117172;1188;21882;-75
2021/09/21 08:06:27;;;;;;;9.90;8.20;;;;;;;18.92;47.71;101400.87;117120;1188;22584;-75
2021/09/21 08:08:57;;;;;;;11.80;8.80;;;;;;;19.03;46.45;101400.97;117129;1185;22985;-74
2021/09/21 08:11:27;;;;;;;8.00;7.30;;;;;;;19.08;46.24;101402.19;117177;1188;22904;-75
2021/09/21 08:13:57;;;;;;;8.60;7.70;;;;;;;19.22;46.28;101406.99;116828;1183;21881;-74
2021/09/21 08:16:26;;;;;;;8.80;6.90;;;;;;;19.36;45.43;101411.59;116829;1190;21890;-74
2021/09/21 08:18:58;;;;;;;7.80;6.80;;;;;;;19.24;44.35;101413.56;116602;1193;23043;-76
2021/09/21 08:21:27;;;;;;;10.10;6.90;;;;;;;19.17;44.97;101413.95;116641;1193;22075;-76
2021/09/21 08:23:57;;;;;;;9.60;6.40;;;;;;;19.10;44.25;101416.80;116547;1193;21907;-75
2021/09/21 08:26:28;;;;;;;9.10;6.50;;;;;;;19.06;44.53;101416.80;116540;1193;22057;-76
2021/09/21 08:28:57;;;;;;;10.40;6.70;;;;;;;19.15;44.69;101416.02;116836;1191;21916;-75
2021/09/21 08:31:27;;;;;;;8.50;7.00;;;;;;;19.26;44.20;101416.77;116691;1191;23543;-75
2021/09/21 08:33:56;;;;;;;11.90;7.20;;;;;;;19.28;43.42;101415.89;116875;1187;21884;-75
2021/09/21 08:36:25;;;;;;;8.00;7.10;;;;;;;19.22;43.71;101419.11;116824;1191;22663;-75
2021/09/21 08:38:56;;;;;;;9.80;6.90;;;;;;;19.31;43.99;101414.33;116749;1191;22127;-76
2021/09/21 08:41:26;;;;;;;;;;;;;;;19.39;43.60;101410.25;116795;1191;23410;-76
2021/09/21 08:43:56;;;;;;;;;;;;;;;19.34;42.84;101413.85;116918;1188;21980;-75
2021/09/21 08:46:25;;;;;;;;;;;;;;;19.30;42.91;101412.97;117104;1188;21860;-75
2021/09/21 08:48:54;;;;;;;;;;;;;;;19.31;42.75;101415.77;117078;1188;22921;-75
2021/09/21 08:51:24;;;;;;;;;;;;;;;19.20;42.40;101413.24;117113;1187;21862;-74
2021/09/21 08:53:53;;;;;;;;;;;;;;;19.10;42.45;101414.14;117204;1188;23424;-75
2021/09/21 08:56:22;;;;;;;;;;;;;;;18.99;42.16;101414.27;117035;1189;23420;-75
2021/09/21 08:59:11;;;;;;;;;;;;;;;18.77;41.94;101413.23;117206;1187;22791;-77
2021/09/21 09:01:48;;;;;;;;;;;;;;;18.61;42.71;101414.10;117300;1187;22048;-75
2021/09/21 09:04:18;;;;;;;;;;;;;;;18.50;43.00;101413.36;117203;1187;21883;-74
2021/09/21 09:06:56;;;;;;;;;;;;;;;18.38;43.07;101410.66;117222;1184;21870;-75
2021/09/21 09:09:30;;;;;;;;;;;;;;;18.39;44.00;101407.50;116927;1190;21861;-76
2021/09/21 09:12:02;;;;;;;;;;;;;;;18.50;44.04;101408.20;117041;1190;21866;-75
2021/09/21 09:14:34;;;;;;;;;;;;;;;18.75;44.41;101410.71;116964;1190;21891;-75
2021/09/21 09:17:07;;;;;;;;;;;;;;;19.09;43.88;101408.91;116937;1190;21854;-75
2021/09/21 09:19:39;;;;;;;;;;;;;;;19.31;42.92;101408.02;116882;1190;23447;-75
2021/09/21 09:22:12;;;;;;;;;;;;;;;19.50;42.82;101408.88;116987;1190;21916;-76
2021/09/21 09:24:55;;;;;;;;;;;;;;;19.74;42.45;101410.09;117030;1186;21873;-76
2021/09/21 09:27:39;;;;;;;;;;;;;;;19.94;41.80;101404.04;116957;1189;22922;-76
2021/09/21 09:30:12;;;;;;;;;;;;;;;20.09;41.46;101404.75;117037;1188;22061;-75
2021/09/21 09:32:46;;;;;;;;;;;;;;;20.26;40.90;101407.98;117080;1186;21968;-76
2021/09/21 09:35:46;;;;;;;;;;;;;;;20.30;40.37;101405.52;116870;1191;21903;-76
2021/09/21 09:38:22;;;;;;;;;;;;;;;20.14;39.92;101400.44;116663;1193;21880;-77
2021/09/21 09:40:56;;;;;;;;;;;;;;;19.93;40.14;101394.98;116589;1194;21970;-77
2021/09/21 09:43:28;;;;;;;;;;;;;;;19.76;40.59;101394.38;116494;1194;22778;-76
2021/09/21 09:46:01;;;;;;;;;;;;;;;19.68;41.34;101397.59;116485;1194;21930;-75
2021/09/21 09:48:32;;;;;;;;;;;;;;;19.79;42.29;101395.96;116462;1194;22574;-74
2021/09/21 09:51:01;;;;;;;;;;;;;;;20.04;42.50;101391.38;116523;1194;21921;-74
2021/09/21 09:53:30;;;;;;;;;;;;;;;20.35;42.36;101394.45;116466;1191;22920;-74
2021/09/21 09:55:59;;;;;;;;;;;;;;;20.67;42.24;101387.95;116517;1190;22117;-76
2021/09/21 09:58:28;;;;;;;;;;;;;;;20.99;41.24;101378.59;116491;1192;21928;-76
2021/09/21 10:00:57;;;;;;;;;;;;;;;21.16;39.90;101377.36;116771;1192;22360;-75
2021/09/21 10:03:27;;;;;;;;;;;;;;;21.22;39.21;101377.34;116784;1191;22002;-76
2021/09/21 10:05:57;;;;;;;;;;;;;;;21.32;39.28;101376.66;116895;1191;22621;-74
2021/09/21 10:08:26;;;;;;;;;;;;;;;21.41;38.74;101376.75;117050;1191;23523;-75
2021/09/21 10:10:55;;;;;;;;;;;;;;;21.43;38.52;101376.29;116859;1191;21905;-75
2021/09/21 10:13:24;;;;;;;;;;;;;;;21.37;38.26;101376.39;116863;1191;21905;-75
2021/09/21 10:15:53;;;;;;;;;;;;;;;21.31;38.61;101377.67;116980;1187;22949;-74
2021/09/21 10:18:23;;;;;;;;;;;;;;;21.39;38.78;101380.35;117099;1189;22633;-74
2021/09/21 10:20:57;;;;;;;;;;;;;;;21.55;38.25;101386.08;117226;1189;22169;-75
2021/09/21 10:23:34;;;;;;;;;;;;;;;21.53;37.28;101390.21;117253;1185;24131;-76
2021/09/21 10:26:15;;;;;;;;;;;;;;;21.29;37.00;101384.27;117022;1190;21872;-75
2021/09/21 10:28:49;;;;;;;;;;;;;;;20.92;37.40;101381.95;116895;1190;21880;-74
2021/09/21 10:31:20;;;;;;;;;;;;;;;20.84;38.66;101385.27;116901;1190;23452;-77
2021/09/21 10:33:51;;;;;;;;;;;;;;;20.87;38.83;101390.23;117029;1190;23506;-74
2021/09/21 10:36:23;;;;;;;;;;;;;;;20.75;38.40;101381.23;116910;1190;24134;-74
2021/09/21 10:38:53;;;;;;;;;;;;;;;20.44;38.10;101382.68;116890;1190;23584;-73
2021/09/21 10:41:23;;;;;;;;;;;;;;;20.07;38.72;101381.93;116858;1190;22930;-73
2021/09/21 10:44:01;;;;;;;;;;;;;;;19.72;39.04;101378.87;116913;1190;21884;-73
2021/09/21 10:46:40;;;;;;;;;;;;;;;19.39;39.38;101374.59;116826;1190;23416;-75
2021/09/21 10:49:20;;;;;;;;;;;;;;;19.09;39.90;101376.55;116841;1190;22945;-73
2021/09/21 10:51:50;;;;;;;;;;;;;;;18.99;41.31;101375.77;116900;1188;22900;-73
2021/09/21 10:54:28;;;;;;;;;;;;;;;19.04;41.77;101379.71;117314;1183;21877;-73
2021/09/21 10:57:27;;;;;;;;;;;;;;;18.99;41.55;101381.10;117232;1185;21879;-74
2021/09/21 10:59:59;;;;;;;;;;;;;;;18.82;41.58;101384.86;117218;1188;21874;-72
2021/09/21 11:02:36;;;;;;;;;;;;;;;18.70;41.78;101381.40;117223;1188;21976;-74
2021/09/21 11:05:15;;;;;;;;;;;;;;;18.58;41.92;101386.49;117284;1187;21934;-74
2021/09/21 11:07:52;;;;;;;;;;;;;;;18.41;42.17;101384.57;117197;1184;21860;-74
2021/09/21 11:10:49;;;;;;;;;;;;;;;18.25;42.33;101386.86;117244;1188;22412;-74
2021/09/21 11:13:18;;;;;;;;;;;;;;;18.19;42.94;101389.80;117191;1188;21996;-73
2021/09/21 11:15:47;;;;;;;;;;;;;;;18.16;43.07;101391.23;117248;1188;21880;-74
2021/09/21 11:18:21;;;;;;;;;;;;;;;18.08;43.01;101393.83;117160;1187;22331;-73
2021/09/21 11:20:51;;;;;;;;;;;;;;;17.99;43.00;101394.89;117231;1188;23423;-73
2021/09/21 11:23:22;;;;;;;;;;;;;;;17.89;43.10;101395.01;117244;1187;23435;-74
2021/09/21 11:25:52;;;;;;;;;;;;;;;17.80;43.35;101396.50;117268;1188;23414;-74
2021/09/21 11:28:21;;;;;;;;;;;;;;;17.70;43.48;101402.01;117220;1188;21902;-73
2021/09/21 11:30:50;;;;;;;;;;;;;;;17.65;43.74;101399.57;116928;1190;21881;-73
2021/09/21 11:33:23;;;;;;;;;;;;;;;17.59;43.73;101403.31;116970;1190;21889;-75
2021/09/21 11:35:55;;;;;;;;;;;;;;;17.51;43.89;101403.64;116916;1190;22941;-74
2021/09/21 11:38:30;;;;;;;;;;;;;;;17.42;44.11;101399.11;116838;1192;23688;-73
2021/09/21 11:41:00;;;;;;;;;;;;;;;17.35;44.16;101398.59;116772;1192;21884;-76
2021/09/21 11:43:30;;;;;;;;;;;;;;;17.30;44.32;101403.60;116809;1192;23525;-74
2021/09/21 11:46:00;;;;;;;;;;;;;;;17.26;44.52;101403.96;116801;1189;22951;-75
2021/09/21 11:48:29;;;;;;;;;;;;;;;17.17;44.66;101404.79;116804;1191;21883;-75
2021/09/21 11:50:59;;;;;;;;;;;;;;;17.15;45.14;101405.48;116910;1190;22949;-74
2021/09/21 11:53:30;;;;;;;;;;;;;;;17.14;45.41;101403.39;116949;1190;21872;-73
2021/09/21 11:56:01;;;;;;;;;;;;;;;17.15;45.53;101401.48;117096;1187;22901;-74
2021/09/21 11:58:33;;;;;;;;;;;;;;;17.21;45.36;101401.05;117213;1187;22241;-74
2021/09/21 12:01:07;;;;;;;;;;;;;;;17.21;45.41;101401.17;117269;1188;22984;-74